Time;durP1;ratioP1;P1;durP2;ratioP2;P2;SDS_P1;SDS_P2;PMS_P1;PMS_P2;Temp;Humidity;BMP_temperature;BMP_pressure;BME280_temperature;BME280_humidity;BME280_pressure;Samples;Min_cycle;Max_cycle;Signal;HPM_P1;HPM_P2
2023/02/22 00:00:48;;;;;;;11.00;7.00;;;;;;;;;;5035306;28;20358;-73
2023/02/22 00:03:34;;;;;;;11.43;7.57;;;;;;;;;;5033712;28;20014;-73
2023/02/22 00:06:23;;;;;;;11.27;7.32;;;;;;;;;;5033238;28;20032;-74
2023/02/22 00:09:09;;;;;;;11.10;7.32;;;;;;;;;;5033603;28;20022;-73
2023/02/22 00:11:54;;;;;;;13.13;7.43;;;;;;;;;;5032879;28;20053;-73
2023/02/22 00:14:41;;;;;;;14.00;7.93;;;;;;;;;;5032892;28;20065;-73
2023/02/22 00:17:29;;;;;;;16.77;8.02;;;;;;;;;;5033896;28;20025;-74
2023/02/22 00:20:18;;;;;;;12.30;7.68;;;;;;;;;;5035030;28;20446;-72
2023/02/22 00:23:06;;;;;;;12.68;7.43;;;;;;;;;;5035460;28;20095;-73
2023/02/22 00:25:51;;;;;;;11.73;7.63;;;;;;;;;;5040905;28;20021;-74
2023/02/22 00:28:37;;;;;;;12.15;7.65;;;;;;;;;;5041380;28;20028;-74
2023/02/22 00:31:22;;;;;;;13.15;8.25;;;;;;;;;;5041364;28;20369;-74
2023/02/22 00:34:08;;;;;;;11.35;7.22;;;;;;;;;;5041391;28;20034;-73
2023/02/22 00:36:53;;;;;;;13.57;8.00;;;;;;;;;;5041540;28;20031;-72
2023/02/22 00:39:39;;;;;;;14.40;8.35;;;;;;;;;;5041436;28;20018;-74
2023/02/22 00:42:25;;;;;;;13.40;8.00;;;;;;;;;;5040810;28;20021;-74
2023/02/22 00:45:11;;;;;;;14.05;8.23;;;;;;;;;;5040517;28;20358;-73
2023/02/22 00:47:58;;;;;;;15.25;8.35;;;;;;;;;;5041676;28;20056;-74
2023/02/22 00:50:43;;;;;;;13.07;7.72;;;;;;;;;;5041944;28;20025;-72
2023/02/22 00:53:29;;;;;;;15.55;8.10;;;;;;;;;;5040532;28;20083;-74
2023/02/22 00:56:15;;;;;;;13.65;8.00;;;;;;;;;;5039697;28;20469;-74
2023/02/22 00:59:00;;;;;;;12.70;7.88;;;;;;;;;;5040679;28;20029;-73
2023/02/22 01:01:46;;;;;;;15.85;8.32;;;;;;;;;;5040045;28;20033;-73
2023/02/22 01:04:31;;;;;;;13.93;8.05;;;;;;;;;;5041190;28;20017;-74
2023/02/22 01:07:17;;;;;;;13.05;8.10;;;;;;;;;;5040021;28;20014;-72
2023/02/22 01:10:03;;;;;;;12.63;7.57;;;;;;;;;;5041775;28;20029;-73
2023/02/22 01:12:49;;;;;;;13.55;7.85;;;;;;;;;;5041384;28;20025;-73
2023/02/22 01:15:37;;;;;;;14.40;8.18;;;;;;;;;;5041698;28;20040;-73
2023/02/22 01:18:22;;;;;;;13.40;8.18;;;;;;;;;;5041113;28;20120;-74
2023/02/22 01:21:08;;;;;;;14.48;8.05;;;;;;;;;;5041065;28;20029;-74
2023/02/22 01:23:53;;;;;;;11.50;7.50;;;;;;;;;;5040371;28;20133;-75
2023/02/22 01:26:39;;;;;;;14.93;8.05;;;;;;;;;;5041498;28;20025;-72
2023/02/22 01:29:25;;;;;;;15.82;7.65;;;;;;;;;;5040598;28;20017;-73
2023/02/22 01:32:10;;;;;;;12.90;8.38;;;;;;;;;;5038922;28;20056;-74
2023/02/22 01:34:56;;;;;;;11.57;7.15;;;;;;;;;;5037559;28;20120;-73
2023/02/22 01:37:42;;;;;;;13.05;8.10;;;;;;;;;;5037559;28;20021;-74
2023/02/22 01:40:29;;;;;;;11.57;7.25;;;;;;;;;;5038747;28;20024;-73
2023/02/22 01:43:31;;;;;;;11.43;6.70;;;;;;;;;;5046798;28;20356;-74
2023/02/22 01:46:22;;;;;;;13.10;7.35;;;;;;;;;;5038191;28;20367;-73
2023/02/22 01:49:09;;;;;;;12.77;7.68;;;;;;;;;;5037064;28;20104;-73
2023/02/22 01:51:55;;;;;;;12.48;7.18;;;;;;;;;;5037813;28;20022;-73
2023/02/22 01:54:45;;;;;;;13.25;8.10;;;;;;;;;;5037600;28;20021;-73
2023/02/22 01:57:33;;;;;;;11.95;7.18;;;;;;;;;;5037441;28;20025;-73
2023/02/22 02:00:20;;;;;;;12.90;7.47;;;;;;;;;;5036560;28;20079;-73
2023/02/22 02:03:20;;;;;;;13.85;7.95;;;;;;;;;;5035872;28;20022;-72
2023/02/22 02:06:10;;;;;;;12.25;7.70;;;;;;;;;;5038340;28;20451;-72
2023/02/22 02:09:15;;;;;;;16.05;7.47;;;;;;;;;;5038141;28;20327;-72
2023/02/22 02:12:01;;;;;;;11.98;7.47;;;;;;;;;;5036402;28;20026;-74
2023/02/22 02:14:47;;;;;;;12.63;7.35;;;;;;;;;;5036512;28;20026;-72
2023/02/22 02:17:33;;;;;;;12.40;7.00;;;;;;;;;;5036853;28;20105;-73
2023/02/22 02:20:18;;;;;;;15.27;7.30;;;;;;;;;;5036315;28;20025;-73
2023/02/22 02:23:27;;;;;;;11.45;7.10;;;;;;;;;;5036240;28;20362;-72
2023/02/22 02:26:22;;;;;;;14.27;7.45;;;;;;;;;;5012293;28;20037;-74
2023/02/22 02:29:17;;;;;;;14.02;7.05;;;;;;;;;;5041599;28;20025;-73
2023/02/22 02:32:05;;;;;;;10.50;6.78;;;;;;;;;;5041139;28;20107;-73
2023/02/22 02:34:53;;;;;;;12.00;7.38;;;;;;;;;;5038997;28;20485;-73
2023/02/22 02:37:45;;;;;;;11.52;6.88;;;;;;;;;;5037986;28;20338;-74
2023/02/22 02:40:49;;;;;;;10.02;6.30;;;;;;;;;;5037264;28;20108;-72
2023/02/22 02:43:34;;;;;;;10.77;6.40;;;;;;;;;;5037032;28;20029;-73
2023/02/22 02:46:30;;;;;;;14.10;6.57;;;;;;;;;;5036421;28;20422;-72
2023/02/22 02:49:23;;;;;;;9.13;6.18;;;;;;;;;;5036705;28;20025;-72
2023/02/22 02:52:11;;;;;;;12.43;6.78;;;;;;;;;;5036044;28;20079;-72
2023/02/22 02:54:57;;;;;;;10.75;7.22;;;;;;;;;;5035474;28;20048;-72
2023/02/22 02:57:43;;;;;;;10.93;6.35;;;;;;;;;;5036858;28;20035;-73
2023/02/22 03:00:37;;;;;;;9.98;6.20;;;;;;;;;;5036785;28;20107;-74
2023/02/22 03:03:32;;;;;;;9.32;6.25;;;;;;;;;;5038122;28;20342;-72
2023/02/22 03:06:53;;;;;;;13.40;6.18;;;;;;;;;;5035324;28;20076;-73
2023/02/22 03:09:39;;;;;;;13.73;6.32;;;;;;;;;;4956244;29;20031;-73
2023/02/22 03:12:26;;;;;;;11.80;6.53;;;;;;;;;;5035198;28;20357;-72
2023/02/22 03:15:31;;;;;;;10.75;5.88;;;;;;;;;;5035622;28;20033;-74
2023/02/22 03:18:32;;;;;;;12.85;6.70;;;;;;;;;;5035939;28;20369;-73
2023/02/22 03:21:17;;;;;;;9.27;6.28;;;;;;;;;;5035231;28;20048;-73
2023/02/22 03:24:23;;;;;;;10.73;6.50;;;;;;;;;;5035959;28;20079;-72
2023/02/22 03:27:11;;;;;;;11.20;6.35;;;;;;;;;;5036272;28;20036;-73
2023/02/22 03:30:00;;;;;;;10.07;6.72;;;;;;;;;;5036950;28;20081;-72
2023/02/22 03:32:48;;;;;;;11.48;6.72;;;;;;;;;;5036392;28;20052;-72
2023/02/22 03:35:36;;;;;;;10.32;6.95;;;;;;;;;;5037427;28;20018;-72
2023/02/22 03:38:22;;;;;;;10.05;6.22;;;;;;;;;;5038482;28;20041;-73
2023/02/22 03:41:09;;;;;;;10.38;6.90;;;;;;;;;;5036423;28;20022;-71
2023/02/22 03:43:59;;;;;;;10.82;7.15;;;;;;;;;;5035517;28;20029;-73
2023/02/22 03:46:45;;;;;;;12.35;7.03;;;;;;;;;;5037333;28;20350;-73
2023/02/22 03:49:36;;;;;;;13.85;7.40;;;;;;;;;;5036661;28;20025;-73
2023/02/22 03:52:24;;;;;;;9.65;6.78;;;;;;;;;;5036145;28;20335;-72
2023/02/22 03:55:11;;;;;;;10.63;6.60;;;;;;;;;;5035560;28;20018;-72
2023/02/22 03:57:57;;;;;;;10.80;6.78;;;;;;;;;;5033522;28;20017;-73
2023/02/22 04:00:43;;;;;;;13.63;6.40;;;;;;;;;;5035204;28;20021;-73
2023/02/22 04:03:29;;;;;;;10.98;6.55;;;;;;;;;;5036474;28;20025;-74
2023/02/22 04:06:14;;;;;;;12.77;7.03;;;;;;;;;;5035892;28;20021;-74
2023/02/22 04:09:00;;;;;;;9.60;6.68;;;;;;;;;;5034724;28;20025;-74
2023/02/22 04:11:45;;;;;;;13.82;6.68;;;;;;;;;;5036140;28;20035;-72
2023/02/22 04:14:31;;;;;;;9.50;6.15;;;;;;;;;;5035040;28;20036;-74
2023/02/22 04:17:16;;;;;;;9.25;6.82;;;;;;;;;;5034230;28;20052;-73
2023/02/22 04:20:02;;;;;;;12.70;7.05;;;;;;;;;;5034173;28;20083;-74
2023/02/22 04:22:48;;;;;;;11.27;6.47;;;;;;;;;;5034780;28;20022;-72
2023/02/22 04:25:33;;;;;;;10.40;6.40;;;;;;;;;;5034256;28;20032;-73
2023/02/22 04:28:19;;;;;;;11.88;6.50;;;;;;;;;;5034136;28;20028;-74
2023/02/22 04:31:05;;;;;;;9.75;6.47;;;;;;;;;;5035136;28;20022;-74
2023/02/22 04:33:50;;;;;;;11.07;6.95;;;;;;;;;;5034080;28;20539;-74
2023/02/22 04:36:36;;;;;;;12.35;6.70;;;;;;;;;;5034410;28;20108;-74
2023/02/22 04:39:21;;;;;;;12.00;6.55;;;;;;;;;;5035372;28;20408;-75
2023/02/22 04:42:07;;;;;;;12.20;6.60;;;;;;;;;;5033432;28;20033;-73
2023/02/22 04:44:53;;;;;;;11.90;6.47;;;;;;;;;;5038421;28;20010;-73
2023/02/22 04:47:38;;;;;;;10.10;6.38;;;;;;;;;;5034289;28;20116;-74
2023/02/22 04:50:24;;;;;;;10.38;6.55;;;;;;;;;;5035938;28;20036;-72
2023/02/22 04:53:10;;;;;;;10.55;6.82;;;;;;;;;;5035052;28;20081;-73
2023/02/22 04:55:55;;;;;;;12.20;7.25;;;;;;;;;;5035113;28;20025;-73
2023/02/22 04:58:41;;;;;;;12.82;7.50;;;;;;;;;;5034570;28;20077;-73
2023/02/22 05:01:33;;;;;;;16.73;7.47;;;;;;;;;;5033122;28;20032;-74
2023/02/22 05:04:20;;;;;;;13.68;7.07;;;;;;;;;;5034940;28;20057;-73
2023/02/22 05:07:06;;;;;;;13.65;6.95;;;;;;;;;;5035273;28;20049;-74
2023/02/22 05:09:51;;;;;;;10.32;6.78;;;;;;;;;;5045097;28;20059;-74
2023/02/22 05:12:37;;;;;;;12.48;6.80;;;;;;;;;;5037950;28;20029;-74
2023/02/22 05:15:24;;;;;;;11.98;6.93;;;;;;;;;;5039361;28;20464;-74
2023/02/22 05:18:09;;;;;;;11.48;6.43;;;;;;;;;;5040691;28;20029;-74
2023/02/22 05:20:55;;;;;;;9.20;6.45;;;;;;;;;;5042065;28;20018;-73
2023/02/22 05:23:40;;;;;;;10.60;6.40;;;;;;;;;;5041371;28;20014;-74
2023/02/22 05:26:26;;;;;;;10.63;6.82;;;;;;;;;;5039439;28;20025;-75
2023/02/22 05:29:12;;;;;;;19.40;8.65;;;;;;;;;;5045296;28;20029;-73
2023/02/22 05:31:57;;;;;;;18.02;9.02;;;;;;;;;;5039540;28;20079;-75
2023/02/22 05:34:43;;;;;;;13.98;8.18;;;;;;;;;;5037320;28;20028;-75
2023/02/22 05:37:28;;;;;;;12.90;8.32;;;;;;;;;;5037651;28;20068;-74
2023/02/22 05:40:15;;;;;;;17.63;8.60;;;;;;;;;;5037201;28;20032;-74
2023/02/22 05:43:01;;;;;;;13.57;7.95;;;;;;;;;;5037686;28;20013;-73
2023/02/22 05:45:47;;;;;;;13.88;7.72;;;;;;;;;;5037506;28;20017;-75
2023/02/22 05:48:33;;;;;;;15.18;7.53;;;;;;;;;;5037113;28;20053;-74
2023/02/22 05:51:18;;;;;;;12.20;6.78;;;;;;;;;;5035725;28;20013;-75
2023/02/22 05:54:04;;;;;;;11.98;6.40;;;;;;;;;;5036617;28;20025;-75
2023/02/22 05:56:49;;;;;;;10.85;6.25;;;;;;;;;;5036698;28;20132;-75
2023/02/22 05:59:35;;;;;;;12.88;5.93;;;;;;;;;;5036893;28;20025;-72
2023/02/22 06:02:20;;;;;;;11.75;5.68;;;;;;;;;;5035403;28;20018;-74
2023/02/22 06:05:06;;;;;;;18.50;6.70;;;;;;;;;;5036907;28;20072;-75
2023/02/22 06:07:52;;;;;;;36.83;9.90;;;;;;;;;;5037534;28;20033;-74
2023/02/22 06:10:38;;;;;;;21.15;9.98;;;;;;;;;;5035991;28;20100;-74
2023/02/22 06:13:23;;;;;;;14.85;8.52;;;;;;;;;;5036491;28;20385;-72
2023/02/22 06:16:09;;;;;;;16.95;8.93;;;;;;;;;;5036762;28;20028;-74
2023/02/22 06:18:55;;;;;;;14.23;7.22;;;;;;;;;;5036726;28;20025;-74
2023/02/22 06:21:47;;;;;;;15.25;7.78;;;;;;;;;;5036279;28;20354;-73
2023/02/22 06:24:33;;;;;;;14.25;6.93;;;;;;;;;;5036804;28;20026;-74
2023/02/22 06:27:18;;;;;;;11.48;6.35;;;;;;;;;;5037259;28;20032;-74
2023/02/22 06:30:04;;;;;;;16.10;7.05;;;;;;;;;;5036203;28;20108;-74
2023/02/22 06:32:50;;;;;;;12.73;6.43;;;;;;;;;;5036819;28;20053;-74
2023/02/22 06:35:35;;;;;;;9.35;6.22;;;;;;;;;;5036541;28;20029;-75
2023/02/22 06:38:22;;;;;;;10.32;6.68;;;;;;;;;;5036347;28;20409;-74
2023/02/22 06:41:10;;;;;;;10.20;6.68;;;;;;;;;;5036251;28;20441;-75
2023/02/22 06:43:56;;;;;;;11.85;6.65;;;;;;;;;;5035320;28;20120;-74
2023/02/22 06:46:50;;;;;;;9.70;5.40;;;;;;;;;;5036179;28;20083;-74
2023/02/22 06:49:35;;;;;;;11.07;6.60;;;;;;;;;;5035977;28;20029;-73
2023/02/22 06:52:21;;;;;;;10.57;6.07;;;;;;;;;;5036242;28;20025;-74
2023/02/22 06:55:07;;;;;;;11.18;6.50;;;;;;;;;;5036231;28;20033;-74
2023/02/22 06:57:55;;;;;;;11.38;6.25;;;;;;;;;;5036026;28;20104;-73
2023/02/22 07:00:41;;;;;;;13.77;6.47;;;;;;;;;;5036025;28;20017;-73
2023/02/22 07:03:26;;;;;;;9.07;6.50;;;;;;;;;;5035530;28;20021;-73
2023/02/22 07:06:12;;;;;;;14.90;7.43;;;;;;;;;;5035755;28;20019;-74
2023/02/22 07:08:57;;;;;;;11.63;6.65;;;;;;;;;;5035867;28;20370;-74
2023/02/22 07:11:43;;;;;;;12.68;6.60;;;;;;;;;;5035825;28;20484;-74
2023/02/22 07:14:29;;;;;;;10.98;6.85;;;;;;;;;;5034879;28;20025;-74
2023/02/22 07:17:14;;;;;;;14.55;7.03;;;;;;;;;;5034072;28;20074;-74
2023/02/22 07:20:00;;;;;;;11.70;6.93;;;;;;;;;;5035798;28;20025;-74
2023/02/22 07:22:46;;;;;;;14.15;6.93;;;;;;;;;;5035019;28;20031;-74
2023/02/22 07:25:31;;;;;;;13.73;7.60;;;;;;;;;;5034860;28;20018;-73
2023/02/22 07:28:17;;;;;;;14.30;7.85;;;;;;;;;;5035775;28;20087;-75
2023/02/22 07:31:03;;;;;;;12.82;7.47;;;;;;;;;;5036228;28;20060;-75
2023/02/22 07:33:50;;;;;;;14.38;7.43;;;;;;;;;;5033681;28;20076;-74
2023/02/22 07:36:35;;;;;;;13.13;7.38;;;;;;;;;;5034346;28;20090;-74
2023/02/22 07:39:21;;;;;;;13.85;7.28;;;;;;;;;;5035484;28;20030;-75
2023/02/22 07:42:06;;;;;;;12.55;7.13;;;;;;;;;;5034765;28;20060;-74
2023/02/22 07:44:52;;;;;;;11.85;7.25;;;;;;;;;;5035678;28;20355;-74
2023/02/22 07:47:38;;;;;;;13.20;6.68;;;;;;;;;;5033420;28;20010;-73
2023/02/22 07:50:24;;;;;;;10.32;6.88;;;;;;;;;;5035165;28;20422;-74
2023/02/22 07:53:17;;;;;;;14.10;7.15;;;;;;;;;;5035721;28;20036;-74
2023/02/22 07:56:04;;;;;;;10.57;7.07;;;;;;;;;;5036132;28;20033;-74
2023/02/22 07:58:49;;;;;;;12.00;7.07;;;;;;;;;;5034256;28;20036;-73
2023/02/22 08:01:35;;;;;;;12.50;7.45;;;;;;;;;;5034613;28;20021;-73
2023/02/22 08:04:20;;;;;;;10.07;7.00;;;;;;;;;;5035111;28;20013;-72
2023/02/22 08:07:06;;;;;;;12.02;7.57;;;;;;;;;;5034706;28;20160;-72
2023/02/22 08:09:52;;;;;;;13.45;7.07;;;;;;;;;;5034825;28;20346;-73
2023/02/22 08:12:37;;;;;;;12.65;6.72;;;;;;;;;;5035687;28;20087;-73
2023/02/22 08:15:24;;;;;;;14.68;7.53;;;;;;;;;;5034472;28;20017;-73
2023/02/22 08:18:12;;;;;;;15.48;9.02;;;;;;;;;;5034916;28;20043;-74
2023/02/22 08:20:58;;;;;;;12.82;8.10;;;;;;;;;;5034269;28;20390;-76
2023/02/22 08:23:43;;;;;;;13.13;7.65;;;;;;;;;;5035801;28;20036;-73
2023/02/22 08:26:29;;;;;;;12.77;7.60;;;;;;;;;;5034052;28;20017;-74
2023/02/22 08:29:14;;;;;;;12.18;8.05;;;;;;;;;;5034557;28;20068;-75
2023/02/22 08:32:00;;;;;;;11.80;7.93;;;;;;;;;;5034009;28;20026;-75
2023/02/22 08:34:46;;;;;;;11.60;7.30;;;;;;;;;;5034243;28;20029;-75
2023/02/22 08:37:31;;;;;;;12.20;7.28;;;;;;;;;;5034483;28;20025;-76
2023/02/22 08:40:18;;;;;;;12.85;8.05;;;;;;;;;;5034028;28;20033;-76
2023/02/22 08:43:05;;;;;;;12.00;7.65;;;;;;;;;;5035440;28;20068;-75
2023/02/22 08:45:51;;;;;;;13.13;7.05;;;;;;;;;;5035969;28;20029;-74
2023/02/22 08:48:37;;;;;;;18.13;11.85;;;;;;;;;;5036949;28;20022;-74
2023/02/22 08:51:22;;;;;;;23.15;8.88;;;;;;;;;;5038514;28;20406;-76
2023/02/22 08:54:08;;;;;;;125.95;15.35;;;;;;;;;;5039776;28;20091;-74
2023/02/22 08:56:54;;;;;;;16.15;7.93;;;;;;;;;;5038359;28;20049;-73
2023/02/22 08:59:39;;;;;;;13.07;8.38;;;;;;;;;;5037915;28;20057;-74
2023/02/22 09:02:25;;;;;;;12.20;8.00;;;;;;;;;;5039191;28;20021;-74
2023/02/22 09:05:11;;;;;;;14.73;7.95;;;;;;;;;;5038674;28;20021;-74
2023/02/22 09:07:56;;;;;;;14.85;8.32;;;;;;;;;;5037913;28;20096;-75
2023/02/22 09:10:44;;;;;;;12.35;7.63;;;;;;;;;;5038783;28;20053;-73
2023/02/22 09:13:29;;;;;;;12.15;7.15;;;;;;;;;;5039364;28;20085;-75
2023/02/22 09:16:15;;;;;;;8.25;6.43;;;;;;;;;;5037669;28;20125;-75
2023/02/22 09:19:00;;;;;;;15.32;7.68;;;;;;;;;;5038638;28;20056;-75
2023/02/22 09:21:56;;;;;;;11.73;7.47;;;;;;;;;;5037444;28;20018;-74
2023/02/22 09:24:42;;;;;;;10.38;7.15;;;;;;;;;;5037687;28;20018;-73
2023/02/22 09:27:27;;;;;;;12.20;6.78;;;;;;;;;;5038183;28;20032;-75
2023/02/22 09:30:18;;;;;;;10.90;6.18;;;;;;;;;;5039127;28;20025;-74
2023/02/22 09:33:11;;;;;;;11.68;6.57;;;;;;;;;;5037200;28;20045;-75
2023/02/22 09:35:59;;;;;;;9.50;6.63;;;;;;;;;;5038587;28;20025;-74
2023/02/22 09:38:45;;;;;;;10.00;5.97;;;;;;;;;;5038202;28;20116;-74
2023/02/22 09:41:35;;;;;;;11.10;6.82;;;;;;;;;;5036530;28;20029;-73
2023/02/22 09:44:27;;;;;;;12.63;8.07;;;;;;;;;;5037873;28;20026;-74
2023/02/22 09:47:16;;;;;;;9.13;6.70;;;;;;;;;;5040569;28;20021;-73
2023/02/22 09:50:16;;;;;;;9.20;6.90;;;;;;;;;;5047235;28;20491;-73
2023/02/22 09:53:11;;;;;;;13.70;6.53;;;;;;;;;;5037347;28;20040;-74
2023/02/22 09:55:59;;;;;;;12.52;6.30;;;;;;;;;;5036276;28;20021;-74
2023/02/22 09:58:46;;;;;;;12.88;6.15;;;;;;;;;;5036088;28;20025;-74
2023/02/22 10:01:32;;;;;;;26.67;6.65;;;;;;;;;;5045312;28;20028;-73
2023/02/22 10:04:20;;;;;;;11.75;6.93;;;;;;;;;;5040614;28;20385;-73
2023/02/22 10:07:25;;;;;;;11.38;6.43;;;;;;;;;;5044248;28;20374;-73
2023/02/22 10:10:19;;;;;;;8.77;6.03;;;;;;;;;;5036600;28;20343;-73
2023/02/22 10:13:18;;;;;;;10.20;6.18;;;;;;;;;;5037218;28;20087;-73
2023/02/22 10:16:10;;;;;;;13.20;6.47;;;;;;;;;;5036125;28;20033;-74
2023/02/22 10:19:10;;;;;;;11.68;6.90;;;;;;;;;;5036937;28;20025;-72
2023/02/22 10:21:58;;;;;;;13.07;7.55;;;;;;;;;;5037419;28;20036;-75
2023/02/22 10:24:47;;;;;;;8.25;5.82;;;;;;;;;;5035915;28;20031;-74
2023/02/22 10:27:41;;;;;;;11.57;6.80;;;;;;;;;;5036098;28;20014;-72
2023/02/22 10:30:29;;;;;;;11.55;6.72;;;;;;;;;;5038169;28;20378;-72
2023/02/22 10:33:17;;;;;;;12.80;6.65;;;;;;;;;;5037227;28;20365;-73
2023/02/22 10:36:03;;;;;;;11.40;6.97;;;;;;;;;;5035609;28;20106;-73
2023/02/22 10:38:58;;;;;;;9.52;6.78;;;;;;;;;;5036377;28;20082;-75
2023/02/22 10:41:48;;;;;;;8.77;6.45;;;;;;;;;;5036282;28;20462;-74
2023/02/22 10:44:34;;;;;;;21.15;6.65;;;;;;;;;;5037157;28;20021;-74
2023/02/22 10:47:20;;;;;;;11.57;6.20;;;;;;;;;;5037629;28;20025;-74
2023/02/22 10:50:06;;;;;;;8.43;5.88;;;;;;;;;;5023311;28;20052;-73
2023/02/22 10:52:54;;;;;;;8.55;5.90;;;;;;;;;;5036519;28;20087;-74
2023/02/22 10:55:58;;;;;;;8.27;5.40;;;;;;;;;;5036902;28;20043;-75
2023/02/22 10:58:54;;;;;;;7.78;5.47;;;;;;;;;;5036072;28;20177;-75
2023/02/22 11:01:40;;;;;;;8.30;6.05;;;;;;;;;;5036631;28;20150;-77
2023/02/22 11:04:26;;;;;;;15.15;7.20;;;;;;;;;;5035742;28;20017;-75
2023/02/22 11:07:18;;;;;;;8.65;5.72;;;;;;;;;;5035440;28;20033;-76
2023/02/22 11:10:04;;;;;;;9.82;5.35;;;;;;;;;;5036882;28;20438;-75
2023/02/22 11:12:52;;;;;;;9.18;5.70;;;;;;;;;;5036483;28;20473;-76
2023/02/22 11:15:38;;;;;;;9.00;5.18;;;;;;;;;;5034780;28;20033;-74
2023/02/22 11:18:30;;;;;;;8.48;5.32;;;;;;;;;;5035700;28;20053;-75
2023/02/22 11:21:21;;;;;;;8.65;5.65;;;;;;;;;;5036610;28;20029;-75
2023/02/22 11:24:11;;;;;;;12.85;5.90;;;;;;;;;;5035310;28;20025;-74
2023/02/22 11:26:58;;;;;;;10.35;5.90;;;;;;;;;;5034761;28;20061;-74
2023/02/22 11:29:49;;;;;;;9.63;5.63;;;;;;;;;;5035821;28;20029;-75
2023/02/22 11:32:41;;;;;;;9.82;6.30;;;;;;;;;;5034520;28;20065;-75
2023/02/22 11:35:27;;;;;;;8.93;5.78;;;;;;;;;;5035712;28;20045;-73
2023/02/22 11:38:19;;;;;;;12.90;5.82;;;;;;;;;;5034988;28;20442;-75
2023/02/22 11:41:25;;;;;;;10.25;5.80;;;;;;;;;;5037644;28;20036;-74
2023/02/22 11:44:31;;;;;;;8.48;5.40;;;;;;;;;;5035544;28;20022;-74
2023/02/22 11:47:17;;;;;;;10.00;5.97;;;;;;;;;;5037000;28;20045;-74
2023/02/22 11:50:09;;;;;;;15.55;10.05;;;;;;;;;;5038134;28;20052;-76
2023/02/22 11:53:04;;;;;;;10.20;6.22;;;;;;;;;;5036865;28;20083;-76
2023/02/22 11:56:01;;;;;;;11.38;5.25;;;;;;;;;;5039157;28;20128;-75
2023/02/22 11:59:02;;;;;;;6.07;4.50;;;;;;;;;;5035559;28;20025;-75
2023/02/22 12:01:54;;;;;;;18.73;5.45;;;;;;;;;;5036046;28;20017;-75
2023/02/22 12:05:03;;;;;;;8.60;5.00;;;;;;;;;;5035563;28;20017;-73
2023/02/22 12:07:55;;;;;;;6.28;4.43;;;;;;;;;;5035688;28;20096;-75
2023/02/22 12:10:59;;;;;;;8.45;4.80;;;;;;;;;;5036415;28;20026;-74
2023/02/22 12:13:57;;;;;;;7.22;5.20;;;;;;;;;;5034699;28;20044;-74
2023/02/22 12:17:06;;;;;;;11.80;6.00;;;;;;;;;;5035451;28;20029;-72
2023/02/22 12:20:15;;;;;;;12.02;6.28;;;;;;;;;;5035054;28;20069;-73
2023/02/22 12:23:00;;;;;;;7.25;5.85;;;;;;;;;;5034060;28;20021;-73
2023/02/22 12:25:57;;;;;;;8.05;5.53;;;;;;;;;;5034402;28;20017;-77
2023/02/22 12:28:46;;;;;;;9.48;5.70;;;;;;;;;;5034135;28;20052;-76
2023/02/22 12:31:35;;;;;;;9.18;5.50;;;;;;;;;;5034018;28;20025;-77
2023/02/22 12:34:27;;;;;;;8.68;5.28;;;;;;;;;;5035519;28;20067;-76
2023/02/22 12:37:15;;;;;;;7.78;4.82;;;;;;;;;;5036746;28;20065;-78
2023/02/22 12:40:17;;;;;;;7.40;5.50;;;;;;;;;;5035247;28;20024;-78
2023/02/22 12:43:31;;;;;;;7.65;5.22;;;;;;;;;;5037244;28;20564;-77
2023/02/22 12:46:22;;;;;;;8.40;4.78;;;;;;;;;;5030329;28;20374;-79
2023/02/22 12:49:16;;;;;;;8.32;5.45;;;;;;;;;;5038230;28;20036;-77
2023/02/22 12:52:09;;;;;;;8.50;5.47;;;;;;;;;;5036097;28;20044;-79
2023/02/22 12:55:00;;;;;;;11.02;5.75;;;;;;;;;;5034565;28;20025;-75
2023/02/22 12:58:06;;;;;;;11.00;5.82;;;;;;;;;;5035949;28;20116;-77
2023/02/22 13:01:02;;;;;;;12.15;6.22;;;;;;;;;;5035119;28;20108;-74
2023/02/22 13:03:48;;;;;;;24.50;7.32;;;;;;;;;;5048815;28;20020;-75
2023/02/22 13:06:39;;;;;;;11.57;7.25;;;;;;;;;;5073122;28;20028;-74
2023/02/22 13:09:44;;;;;;;12.10;6.80;;;;;;;;;;5072996;28;20069;-75
2023/02/22 13:12:42;;;;;;;11.02;6.60;;;;;;;;;;5073446;28;20031;-71
2023/02/22 13:15:37;;;;;;;11.73;7.05;;;;;;;;;;5073349;28;20102;-76
2023/02/22 13:18:31;;;;;;;10.43;6.60;;;;;;;;;;5072994;28;20337;-76
2023/02/22 13:21:30;;;;;;;12.50;6.90;;;;;;;;;;5072614;28;20041;-76
2023/02/22 13:24:21;;;;;;;10.43;7.22;;;;;;;;;;5073303;28;20021;-75
2023/02/22 13:27:25;;;;;;;16.77;6.95;;;;;;;;;;5072495;28;20433;-75
2023/02/22 13:30:22;;;;;;;16.83;7.25;;;;;;;;;;5074416;28;20028;-74
2023/02/22 13:33:07;;;;;;;15.13;8.80;;;;;;;;;;5075937;28;20045;-76
2023/02/22 13:35:58;;;;;;;16.40;7.32;;;;;;;;;;5075853;28;20044;-74
2023/02/22 13:38:48;;;;;;;8.73;6.63;;;;;;;;;;5075596;28;20468;-71
2023/02/22 13:41:42;;;;;;;14.45;9.05;;;;;;;;;;5077249;28;20088;-74
2023/02/22 13:44:37;;;;;;;12.20;7.70;;;;;;;;;;5075667;28;20095;-76
2023/02/22 13:47:35;;;;;;;12.32;8.18;;;;;;;;;;5076444;28;20105;-76
2023/02/22 13:50:23;;;;;;;18.25;9.50;;;;;;;;;;5076366;28;20492;-75
2023/02/22 13:53:20;;;;;;;15.52;8.60;;;;;;;;;;5076299;28;20024;-75
2023/02/22 13:56:06;;;;;;;17.35;8.43;;;;;;;;;;5075769;28;20036;-75
2023/02/22 13:58:54;;;;;;;14.18;8.63;;;;;;;;;;5075139;28;20028;-78
2023/02/22 14:01:45;;;;;;;15.10;8.60;;;;;;;;;;5075970;28;20017;-77
2023/02/22 14:04:30;;;;;;;46.20;10.48;;;;;;;;;;5075686;28;20020;-76
2023/02/22 14:07:25;;;;;;;22.02;10.18;;;;;;;;;;5075474;28;20406;-76
2023/02/22 14:10:31;;;;;;;13.23;8.65;;;;;;;;;;5075801;28;20111;-76
2023/02/22 14:13:18;;;;;;;16.73;9.50;;;;;;;;;;5075787;28;20544;-76
2023/02/22 14:16:07;;;;;;;16.08;9.65;;;;;;;;;;5075327;28;20584;-77
2023/02/22 14:19:05;;;;;;;14.65;9.15;;;;;;;;;;5075231;28;20484;-75
2023/02/22 14:21:57;;;;;;;17.15;9.63;;;;;;;;;;5075311;28;20040;-75
2023/02/22 14:24:46;;;;;;;17.13;9.75;;;;;;;;;;5074804;28;20016;-73
2023/02/22 14:27:38;;;;;;;15.80;10.00;;;;;;;;;;5074680;28;20012;-76
2023/02/22 14:30:29;;;;;;;14.00;9.25;;;;;;;;;;5075985;28;20039;-75
2023/02/22 14:33:33;;;;;;;29.15;10.95;;;;;;;;;;5074658;28;20067;-74
2023/02/22 14:36:24;;;;;;;20.67;11.48;;;;;;;;;;5074745;28;20115;-76
2023/02/22 14:39:30;;;;;;;21.50;11.98;;;;;;;;;;5075646;28;20104;-77
2023/02/22 14:42:31;;;;;;;26.17;11.60;;;;;;;;;;5075012;28;20099;-76
2023/02/22 14:45:25;;;;;;;18.42;11.60;;;;;;;;;;5074862;28;20025;-76
2023/02/22 14:48:23;;;;;;;22.35;11.13;;;;;;;;;;5074498;28;20045;-77
2023/02/22 14:51:19;;;;;;;18.52;11.40;;;;;;;;;;5074198;28;20016;-74
2023/02/22 14:54:27;;;;;;;20.25;12.00;;;;;;;;;;5075019;28;20028;-77
2023/02/22 14:57:24;;;;;;;18.15;11.73;;;;;;;;;;5074800;28;20017;-77
2023/02/22 15:00:31;;;;;;;23.15;12.40;;;;;;;;;;5074376;28;20048;-74
2023/02/22 15:03:36;;;;;;;21.10;12.00;;;;;;;;;;5062346;28;20024;-75
2023/02/22 15:06:24;;;;;;;36.58;13.85;;;;;;;;;;5073955;28;20052;-74
2023/02/22 15:09:13;;;;;;;30.50;13.60;;;;;;;;;;5075213;28;20186;-74
2023/02/22 15:12:01;;;;;;;22.92;12.88;;;;;;;;;;5074707;28;20090;-74
2023/02/22 15:14:48;;;;;;;20.98;13.43;;;;;;;;;;5074420;28;20044;-74
2023/02/22 15:17:34;;;;;;;48.30;15.35;;;;;;;;;;5074356;28;20039;-74
2023/02/22 15:20:20;;;;;;;32.90;15.85;;;;;;;;;;5074965;28;20129;-74
2023/02/22 15:23:06;;;;;;;38.35;14.90;;;;;;;;;;5061230;28;20334;-75
2023/02/22 15:25:52;;;;;;;28.10;14.00;;;;;;;;;;5073916;28;20077;-75
2023/02/22 15:28:39;;;;;;;23.17;13.70;;;;;;;;;;5074391;28;20024;-75
2023/02/22 15:31:29;;;;;;;24.48;12.65;;;;;;;;;;5074165;28;20028;-74
2023/02/22 15:34:17;;;;;;;21.85;13.73;;;;;;;;;;5074161;28;20476;-72
2023/02/22 15:37:24;;;;;;;18.38;12.05;;;;;;;;;;5073534;28;20515;-75
2023/02/22 15:40:14;;;;;;;23.00;12.30;;;;;;;;;;5074473;28;20104;-78
2023/02/22 15:43:01;;;;;;;27.88;13.15;;;;;;;;;;5073635;28;20047;-73
2023/02/22 15:45:49;;;;;;;22.00;12.15;;;;;;;;;;5074019;28;20027;-77
2023/02/22 15:48:38;;;;;;;18.90;11.63;;;;;;;;;;5074653;28;20036;-78
2023/02/22 15:51:27;;;;;;;23.45;13.15;;;;;;;;;;5073700;28;20111;-77
2023/02/22 15:54:14;;;;;;;19.50;12.07;;;;;;;;;;5072931;28;20031;-77
2023/02/22 15:57:00;;;;;;;28.00;12.70;;;;;;;;;;5074244;28;20032;-78
2023/02/22 15:59:47;;;;;;;26.35;12.75;;;;;;;;;;5074503;28;20025;-77
2023/02/22 16:02:37;;;;;;;24.33;12.82;;;;;;;;;;5073905;28;20032;-76
2023/02/22 16:05:29;;;;;;;29.08;13.75;;;;;;;;;;5075170;28;20095;-77
2023/02/22 16:08:28;;;;;;;37.88;14.32;;;;;;;;;;5076436;28;20083;-77
2023/02/22 16:11:19;;;;;;;24.40;15.52;;;;;;;;;;5074525;28;20081;-77
2023/02/22 16:14:21;;;;;;;28.67;15.07;;;;;;;;;;5074426;28;20039;-79
2023/02/22 16:17:10;;;;;;;23.75;15.00;;;;;;;;;;5092446;28;20017;-78
2023/02/22 16:20:11;;;;;;;32.33;15.95;;;;;;;;;;5080463;28;20028;-77
2023/02/22 16:22:56;;;;;;;26.70;16.15;;;;;;;;;;5087074;28;20029;-77
2023/02/22 16:25:42;;;;;;;35.05;16.05;;;;;;;;;;5083370;28;20027;-77
2023/02/22 16:28:35;;;;;;;28.98;16.70;;;;;;;;;;5075441;28;20452;-79
2023/02/22 16:31:23;;;;;;;29.02;17.33;;;;;;;;;;5078075;28;20055;-76
2023/02/22 16:34:09;;;;;;;34.60;17.02;;;;;;;;;;5076284;28;20102;-79
2023/02/22 16:36:55;;;;;;;29.10;15.68;;;;;;;;;;5073601;28;20028;-79
2023/02/22 16:39:41;;;;;;;33.70;16.42;;;;;;;;;;5072487;28;20020;-78
2023/02/22 16:42:26;;;;;;;26.50;15.52;;;;;;;;;;5072814;28;20021;-77